sensor_id;sensor_type;location;lat;lon;timestamp;pressure;altitude;pressure_sealevel;temperature;humidity
74834;BME280;63361;52.384;20.930;2022-10-16T00:01:06;100786.53;;;13.21;81.55
74834;BME280;63361;52.384;20.930;2022-10-16T00:03:31;100792.72;;;13.26;81.10
74834;BME280;63361;52.384;20.930;2022-10-16T00:05:59;100798.69;;;13.47;79.84
74834;BME280;63361;52.384;20.930;2022-10-16T00:08:25;100789.03;;;13.41;79.77
74834;BME280;63361;52.384;20.930;2022-10-16T00:10:50;100776.00;;;13.43;79.37
74834;BME280;63361;52.384;20.930;2022-10-16T00:13:16;100783.75;;;13.50;79.01
74834;BME280;63361;52.384;20.930;2022-10-16T00:15:43;100780.91;;;13.41;79.23
74834;BME280;63361;52.384;20.930;2022-10-16T00:18:09;100786.31;;;13.41;79.33
74834;BME280;63361;52.384;20.930;2022-10-16T00:20:35;100781.28;;;13.53;78.47
74834;BME280;63361;52.384;20.930;2022-10-16T00:23:03;100786.00;;;13.66;77.83
74834;BME280;63361;52.384;20.930;2022-10-16T00:25:29;100776.41;;;13.74;77.26
74834;BME280;63361;52.384;20.930;2022-10-16T00:27:54;100802.59;;;13.84;77.01
74834;BME280;63361;52.384;20.930;2022-10-16T00:30:19;100790.66;;;13.85;77.16
74834;BME280;63361;52.384;20.930;2022-10-16T00:32:45;100776.69;;;13.72;77.24
74834;BME280;63361;52.384;20.930;2022-10-16T00:35:10;100785.38;;;13.75;76.96
74834;BME280;63361;52.384;20.930;2022-10-16T00:37:35;100784.13;;;13.86;76.46
74834;BME280;63361;52.384;20.930;2022-10-16T00:40:01;100783.38;;;13.80;76.78
74834;BME280;63361;52.384;20.930;2022-10-16T00:42:26;100790.59;;;13.90;76.38
74834;BME280;63361;52.384;20.930;2022-10-16T00:44:56;100803.72;;;14.01;76.55
74834;BME280;63361;52.384;20.930;2022-10-16T00:47:42;100791.69;;;13.89;76.83
74834;BME280;63361;52.384;20.930;2022-10-16T00:52:46;100801.06;;;13.96;76.18
74834;BME280;63361;52.384;20.930;2022-10-16T00:55:13;100800.84;;;13.93;76.44
74834;BME280;63361;52.384;20.930;2022-10-16T00:57:39;100788.56;;;13.77;76.67
74834;BME280;63361;52.384;20.930;2022-10-16T01:00:07;100802.22;;;13.90;77.12
74834;BME280;63361;52.384;20.930;2022-10-16T01:02:32;100788.28;;;13.78;77.39
74834;BME280;63361;52.384;20.930;2022-10-16T01:04:58;100779.31;;;13.78;76.76
74834;BME280;63361;52.384;20.930;2022-10-16T01:15:21;100813.38;;;14.07;76.34
74834;BME280;63361;52.384;20.930;2022-10-16T01:20:47;100817.22;;;14.25;76.10
74834;BME280;63361;52.384;20.930;2022-10-16T01:23:28;100818.31;;;14.24;76.13
74834;BME280;63361;52.384;20.930;2022-10-16T01:26:15;100820.09;;;14.15;76.49
74834;BME280;63361;52.384;20.930;2022-10-16T01:29:03;100829.31;;;14.14;76.94
74834;BME280;63361;52.384;20.930;2022-10-16T01:31:36;100817.53;;;14.05;77.42
74834;BME280;63361;52.384;20.930;2022-10-16T01:34:25;100831.38;;;14.03;77.79
74834;BME280;63361;52.384;20.930;2022-10-16T01:37:00;100825.06;;;13.89;78.44
74834;BME280;63361;52.384;20.930;2022-10-16T01:39:31;100825.91;;;13.85;79.02
74834;BME280;63361;52.384;20.930;2022-10-16T01:42:04;100828.72;;;13.98;78.29
74834;BME280;63361;52.384;20.930;2022-10-16T01:44:32;100828.59;;;13.90;78.59
74834;BME280;63361;52.384;20.930;2022-10-16T01:46:59;100830.25;;;13.86;79.09
74834;BME280;63361;52.384;20.930;2022-10-16T01:49:30;100829.50;;;13.80;79.45
74834;BME280;63361;52.384;20.930;2022-10-16T01:51:59;100823.25;;;13.80;79.33
74834;BME280;63361;52.384;20.930;2022-10-16T01:54:30;100825.31;;;13.69;79.83
74834;BME280;63361;52.384;20.930;2022-10-16T01:56:58;100822.66;;;13.64;80.03
74834;BME280;63361;52.384;20.930;2022-10-16T01:59:25;100814.91;;;13.52;80.11
74834;BME280;63361;52.384;20.930;2022-10-16T02:02:00;100821.69;;;13.55;79.82
74834;BME280;63361;52.384;20.930;2022-10-16T02:04:29;100825.47;;;13.54;80.03
74834;BME280;63361;52.384;20.930;2022-10-16T02:06:57;100821.00;;;13.44;81.01
74834;BME280;63361;52.384;20.930;2022-10-16T02:09:22;100825.25;;;13.50;80.47
74834;BME280;63361;52.384;20.930;2022-10-16T02:11:47;100825.53;;;13.49;80.46
74834;BME280;63361;52.384;20.930;2022-10-16T02:14:15;100824.81;;;13.43;80.57
74834;BME280;63361;52.384;20.930;2022-10-16T02:16:43;100822.09;;;13.43;80.87
74834;BME280;63361;52.384;20.930;2022-10-16T02:19:09;100815.50;;;13.25;81.27
74834;BME280;63361;52.384;20.930;2022-10-16T02:21:43;100813.88;;;13.24;81.10
74834;BME280;63361;52.384;20.930;2022-10-16T02:26:49;100835.56;;;13.24;81.91
74834;BME280;63361;52.384;20.930;2022-10-16T02:29:18;100835.94;;;13.13;81.91
74834;BME280;63361;52.384;20.930;2022-10-16T02:31:49;100828.09;;;13.11;81.68
74834;BME280;63361;52.384;20.930;2022-10-16T02:34:16;100821.56;;;13.12;81.44
74834;BME280;63361;52.384;20.930;2022-10-16T02:36:44;100827.81;;;13.13;81.39
74834;BME280;63361;52.384;20.930;2022-10-16T02:39:11;100832.38;;;13.17;81.27
74834;BME280;63361;52.384;20.930;2022-10-16T02:41:37;100842.63;;;13.25;80.68
74834;BME280;63361;52.384;20.930;2022-10-16T02:44:02;100836.63;;;13.28;80.70
74834;BME280;63361;52.384;20.930;2022-10-16T02:46:28;100832.56;;;13.26;80.55
74834;BME280;63361;52.384;20.930;2022-10-16T02:48:53;100831.69;;;13.30;80.31
74834;BME280;63361;52.384;20.930;2022-10-16T02:51:18;100840.72;;;13.26;80.63
74834;BME280;63361;52.384;20.930;2022-10-16T02:53:44;100835.09;;;13.17;80.87
74834;BME280;63361;52.384;20.930;2022-10-16T02:56:09;100831.41;;;13.32;80.01
74834;BME280;63361;52.384;20.930;2022-10-16T02:58:35;100819.22;;;13.29;79.39
74834;BME280;63361;52.384;20.930;2022-10-16T03:01:00;100842.78;;;13.34;80.21
74834;BME280;63361;52.384;20.930;2022-10-16T03:03:25;100842.25;;;13.32;80.36
74834;BME280;63361;52.384;20.930;2022-10-16T03:05:51;100842.63;;;13.25;80.16
74834;BME280;63361;52.384;20.930;2022-10-16T03:08:16;100842.66;;;13.20;80.35
74834;BME280;63361;52.384;20.930;2022-10-16T03:10:42;100851.72;;;13.34;79.69
74834;BME280;63361;52.384;20.930;2022-10-16T03:13:07;100861.19;;;13.37;79.77
74834;BME280;63361;52.384;20.930;2022-10-16T03:15:33;100852.88;;;13.28;79.92
74834;BME280;63361;52.384;20.930;2022-10-16T03:17:59;100870.03;;;13.48;79.66
74834;BME280;63361;52.384;20.930;2022-10-16T03:20:25;100831.84;;;13.15;79.91
74834;BME280;63361;52.384;20.930;2022-10-16T03:22:50;100862.94;;;13.28;80.04
74834;BME280;63361;52.384;20.930;2022-10-16T03:25:16;100871.28;;;13.31;80.22
74834;BME280;63361;52.384;20.930;2022-10-16T03:27:41;100875.31;;;13.34;79.93
74834;BME280;63361;52.384;20.930;2022-10-16T03:30:07;100863.13;;;13.31;80.17
74834;BME280;63361;52.384;20.930;2022-10-16T03:32:33;100854.88;;;13.18;80.46
74834;BME280;63361;52.384;20.930;2022-10-16T03:34:58;100853.50;;;13.20;80.16
74834;BME280;63361;52.384;20.930;2022-10-16T03:37:23;100857.31;;;13.19;80.22
74834;BME280;63361;52.384;20.930;2022-10-16T03:39:49;100865.44;;;13.19;79.84
74834;BME280;63361;52.384;20.930;2022-10-16T03:42:14;100860.53;;;13.21;79.93
74834;BME280;63361;52.384;20.930;2022-10-16T03:44:39;100869.22;;;13.18;80.13
74834;BME280;63361;52.384;20.930;2022-10-16T03:47:05;100871.41;;;13.16;80.29
74834;BME280;63361;52.384;20.930;2022-10-16T03:49:30;100870.59;;;13.16;80.44
74834;BME280;63361;52.384;20.930;2022-10-16T03:51:56;100872.50;;;13.15;80.19
74834;BME280;63361;52.384;20.930;2022-10-16T03:54:21;100866.56;;;13.13;79.92
74834;BME280;63361;52.384;20.930;2022-10-16T03:56:47;100864.28;;;12.96;81.05
74834;BME280;63361;52.384;20.930;2022-10-16T03:59:12;100865.66;;;12.89;80.74
74834;BME280;63361;52.384;20.930;2022-10-16T04:01:38;100872.75;;;12.85;81.22
74834;BME280;63361;52.384;20.930;2022-10-16T04:04:03;100873.44;;;12.66;81.52
74834;BME280;63361;52.384;20.930;2022-10-16T04:06:28;100873.84;;;12.45;82.47
74834;BME280;63361;52.384;20.930;2022-10-16T04:08:54;100874.00;;;12.19;83.53
74834;BME280;63361;52.384;20.930;2022-10-16T04:11:19;100857.38;;;11.87;84.98
74834;BME280;63361;52.384;20.930;2022-10-16T04:13:45;100871.19;;;11.80;85.35
74834;BME280;63361;52.384;20.930;2022-10-16T04:16:10;100868.56;;;11.55;87.10
74834;BME280;63361;52.384;20.930;2022-10-16T04:18:35;100883.69;;;11.56;86.96
74834;BME280;63361;52.384;20.930;2022-10-16T04:21:05;100879.59;;;11.69;86.03
74834;BME280;63361;52.384;20.930;2022-10-16T04:23:31;100877.97;;;11.68;86.24
74834;BME280;63361;52.384;20.930;2022-10-16T04:25:57;100885.53;;;11.81;85.96
74834;BME280;63361;52.384;20.930;2022-10-16T04:28:22;100860.44;;;11.50;86.47
74834;BME280;63361;52.384;20.930;2022-10-16T04:30:47;100880.44;;;11.54;87.00
74834;BME280;63361;52.384;20.930;2022-10-16T04:33:13;100886.94;;;11.48;87.46
74834;BME280;63361;52.384;20.930;2022-10-16T04:35:38;100878.31;;;11.36;87.41
74834;BME280;63361;52.384;20.930;2022-10-16T04:38:04;100890.25;;;11.14;89.10
74834;BME280;63361;52.384;20.930;2022-10-16T04:40:29;100879.19;;;10.80;89.60
74834;BME280;63361;52.384;20.930;2022-10-16T04:42:58;100890.25;;;10.69;91.07
74834;BME280;63361;52.384;20.930;2022-10-16T04:45:23;100883.22;;;10.52;91.78
74834;BME280;63361;52.384;20.930;2022-10-16T04:47:49;100889.38;;;10.43;91.81
74834;BME280;63361;52.384;20.930;2022-10-16T04:50:14;100908.84;;;10.50;91.96
74834;BME280;63361;52.384;20.930;2022-10-16T04:52:39;100907.75;;;10.51;92.46
74834;BME280;63361;52.384;20.930;2022-10-16T04:55:05;100907.22;;;10.59;92.15
74834;BME280;63361;52.384;20.930;2022-10-16T04:57:30;100910.44;;;10.56;91.99
74834;BME280;63361;52.384;20.930;2022-10-16T04:59:56;100919.66;;;10.60;91.96
74834;BME280;63361;52.384;20.930;2022-10-16T05:02:21;100907.75;;;10.51;91.79
74834;BME280;63361;52.384;20.930;2022-10-16T05:04:47;100906.94;;;10.45;92.40
74834;BME280;63361;52.384;20.930;2022-10-16T05:07:12;100904.81;;;10.52;92.32
74834;BME280;63361;52.384;20.930;2022-10-16T05:09:37;100929.34;;;10.51;91.97
74834;BME280;63361;52.384;20.930;2022-10-16T05:12:03;100925.00;;;10.40;93.12
74834;BME280;63361;52.384;20.930;2022-10-16T05:14:29;100926.09;;;10.49;92.96
74834;BME280;63361;52.384;20.930;2022-10-16T05:16:54;100924.75;;;10.56;92.66
74834;BME280;63361;52.384;20.930;2022-10-16T05:19:20;100931.00;;;10.67;91.92
74834;BME280;63361;52.384;20.930;2022-10-16T05:21:45;100932.59;;;10.58;92.03
74834;BME280;63361;52.384;20.930;2022-10-16T05:24:10;100936.66;;;10.61;91.62
74834;BME280;63361;52.384;20.930;2022-10-16T05:26:36;100936.16;;;10.69;91.57
74834;BME280;63361;52.384;20.930;2022-10-16T05:29:01;100931.03;;;10.87;90.94
74834;BME280;63361;52.384;20.930;2022-10-16T05:31:28;100922.38;;;10.90;91.09
74834;BME280;63361;52.384;20.930;2022-10-16T05:33:58;100938.06;;;11.09;90.15
74834;BME280;63361;52.384;20.930;2022-10-16T05:36:23;100938.88;;;11.19;89.97
74834;BME280;63361;52.384;20.930;2022-10-16T05:38:50;100925.91;;;11.26;89.25
74834;BME280;63361;52.384;20.930;2022-10-16T05:41:16;100922.38;;;11.31;88.97
74834;BME280;63361;52.384;20.930;2022-10-16T05:43:49;100928.06;;;11.40;88.69
74834;BME280;63361;52.384;20.930;2022-10-16T05:46:15;100933.72;;;11.48;88.65
74834;BME280;63361;52.384;20.930;2022-10-16T05:48:40;100934.25;;;11.50;88.54
74834;BME280;63361;52.384;20.930;2022-10-16T05:51:08;100944.22;;;11.65;87.89
74834;BME280;63361;52.384;20.930;2022-10-16T05:53:35;100949.38;;;11.67;87.81
74834;BME280;63361;52.384;20.930;2022-10-16T05:56:01;100939.63;;;11.66;88.00
74834;BME280;63361;52.384;20.930;2022-10-16T05:58:32;100957.47;;;11.82;87.84
74834;BME280;63361;52.384;20.930;2022-10-16T06:03:26;100949.91;;;11.74;88.03
74834;BME280;63361;52.384;20.930;2022-10-16T06:05:51;100956.94;;;11.80;86.91
74834;BME280;63361;52.384;20.930;2022-10-16T06:08:18;100964.19;;;12.00;87.30
74834;BME280;63361;52.384;20.930;2022-10-16T06:10:45;100948.72;;;12.15;85.90
74834;BME280;63361;52.384;20.930;2022-10-16T06:13:11;100974.56;;;12.47;84.92
74834;BME280;63361;52.384;20.930;2022-10-16T06:15:38;100977.13;;;12.72;83.86
74834;BME280;63361;52.384;20.930;2022-10-16T06:18:04;100957.59;;;12.80;83.49
74834;BME280;63361;52.384;20.930;2022-10-16T06:20:30;100965.63;;;12.95;82.59
74834;BME280;63361;52.384;20.930;2022-10-16T06:22:55;100969.31;;;13.10;82.23
74834;BME280;63361;52.384;20.930;2022-10-16T06:25:20;100969.78;;;13.22;81.48
74834;BME280;63361;52.384;20.930;2022-10-16T06:27:46;100962.91;;;13.34;81.65
74834;BME280;63361;52.384;20.930;2022-10-16T06:30:11;100965.44;;;13.55;81.01
74834;BME280;63361;52.384;20.930;2022-10-16T06:32:36;100968.28;;;13.68;79.48
74834;BME280;63361;52.384;20.930;2022-10-16T06:35:02;100984.59;;;13.92;79.00
74834;BME280;63361;52.384;20.930;2022-10-16T06:37:27;100981.97;;;14.06;78.48
74834;BME280;63361;52.384;20.930;2022-10-16T06:39:53;100981.69;;;14.55;76.63
74834;BME280;63361;52.384;20.930;2022-10-16T06:42:18;100978.44;;;14.53;76.03
74834;BME280;63361;52.384;20.930;2022-10-16T06:44:44;100993.47;;;15.07;74.57
74834;BME280;63361;52.384;20.930;2022-10-16T06:47:09;100968.22;;;15.39;73.09
74834;BME280;63361;52.384;20.930;2022-10-16T06:49:35;100982.41;;;15.68;72.39
74834;BME280;63361;52.384;20.930;2022-10-16T06:52:00;100979.75;;;16.86;68.56
74834;BME280;63361;52.384;20.930;2022-10-16T06:54:27;100977.97;;;18.68;61.04
74834;BME280;63361;52.384;20.930;2022-10-16T06:56:52;100965.47;;;21.78;51.38
74834;BME280;63361;52.384;20.930;2022-10-16T06:59:20;100979.03;;;23.64;46.67
74834;BME280;63361;52.384;20.930;2022-10-16T07:01:45;100979.03;;;23.64;44.57
74834;BME280;63361;52.384;20.930;2022-10-16T07:04:10;100970.25;;;24.76;43.15
74834;BME280;63361;52.384;20.930;2022-10-16T07:06:36;100983.91;;;23.43;44.96
74834;BME280;63361;52.384;20.930;2022-10-16T07:09:04;100998.19;;;21.59;50.05
74834;BME280;63361;52.384;20.930;2022-10-16T07:11:29;100996.81;;;19.64;55.96
74834;BME280;63361;52.384;20.930;2022-10-16T07:13:55;100994.63;;;17.92;61.22
74834;BME280;63361;52.384;20.930;2022-10-16T07:16:31;101019.00;;;17.35;64.33
74834;BME280;63361;52.384;20.930;2022-10-16T07:18:59;101025.00;;;16.87;65.82
74834;BME280;63361;52.384;20.930;2022-10-16T07:21:27;101027.13;;;16.36;68.25
74834;BME280;63361;52.384;20.930;2022-10-16T07:23:55;101014.06;;;15.64;70.30
74834;BME280;63361;52.384;20.930;2022-10-16T07:26:22;101024.88;;;15.51;71.78
74834;BME280;63361;52.384;20.930;2022-10-16T07:28:48;100999.34;;;15.46;71.74
74834;BME280;63361;52.384;20.930;2022-10-16T07:31:15;101011.56;;;15.49;72.73
74834;BME280;63361;52.384;20.930;2022-10-16T07:33:42;101007.59;;;15.60;72.32
74834;BME280;63361;52.384;20.930;2022-10-16T07:36:09;101013.69;;;15.85;71.93
74834;BME280;63361;52.384;20.930;2022-10-16T07:38:35;101009.38;;;15.97;71.32
74834;BME280;63361;52.384;20.930;2022-10-16T07:41:06;100997.28;;;16.17;70.04
74834;BME280;63361;52.384;20.930;2022-10-16T07:43:32;100982.88;;;16.16;69.56
74834;BME280;63361;52.384;20.930;2022-10-16T07:45:57;100971.69;;;18.02;63.35
74834;BME280;63361;52.384;20.930;2022-10-16T07:48:27;100973.34;;;20.30;55.99
74834;BME280;63361;52.384;20.930;2022-10-16T07:51:00;100963.09;;;19.72;56.94
74834;BME280;63361;52.384;20.930;2022-10-16T07:53:26;100983.38;;;20.97;53.87
74834;BME280;63361;52.384;20.930;2022-10-16T07:55:54;100981.28;;;21.15;53.03
74834;BME280;63361;52.384;20.930;2022-10-16T07:58:21;101006.75;;;19.77;56.11
74834;BME280;63361;52.384;20.930;2022-10-16T08:00:47;100994.22;;;19.67;56.57
74834;BME280;63361;52.384;20.930;2022-10-16T08:03:12;101014.53;;;19.66;56.80
74834;BME280;63361;52.384;20.930;2022-10-16T08:05:37;101020.97;;;19.45;57.33
74834;BME280;63361;52.384;20.930;2022-10-16T08:08:03;101019.59;;;20.32;54.81
74834;BME280;63361;52.384;20.930;2022-10-16T08:10:28;101026.53;;;20.67;53.56
74834;BME280;63361;52.384;20.930;2022-10-16T08:12:54;101025.09;;;19.94;55.12
74834;BME280;63361;52.384;20.930;2022-10-16T08:15:20;101042.72;;;19.67;56.47
74834;BME280;63361;52.384;20.930;2022-10-16T08:18:02;101039.13;;;20.39;54.40
74834;BME280;63361;52.384;20.930;2022-10-16T08:20:29;101040.78;;;20.61;53.68
74834;BME280;63361;52.384;20.930;2022-10-16T08:22:55;101016.16;;;21.23;51.66
74834;BME280;63361;52.384;20.930;2022-10-16T08:25:24;101028.50;;;21.50;51.99
74834;BME280;63361;52.384;20.930;2022-10-16T08:27:50;101024.97;;;20.87;52.91
74834;BME280;63361;52.384;20.930;2022-10-16T08:30:17;101038.53;;;19.44;57.88
74834;BME280;63361;52.384;20.930;2022-10-16T08:32:43;101026.44;;;19.71;57.05
74834;BME280;63361;52.384;20.930;2022-10-16T08:35:09;101033.78;;;19.87;56.66
74834;BME280;63361;52.384;20.930;2022-10-16T08:37:35;101033.81;;;20.63;53.75
74834;BME280;63361;52.384;20.930;2022-10-16T08:40:00;101044.28;;;21.86;50.69
74834;BME280;63361;52.384;20.930;2022-10-16T08:45:22;101049.16;;;20.18;55.55
74834;BME280;63361;52.384;20.930;2022-10-16T08:50:40;101046.47;;;19.54;57.96
74834;BME280;63361;52.384;20.930;2022-10-16T08:53:06;101047.50;;;19.96;57.08
74834;BME280;63361;52.384;20.930;2022-10-16T08:55:42;101048.72;;;19.52;58.23
74834;BME280;63361;52.384;20.930;2022-10-16T08:58:22;101040.72;;;19.93;57.14
74834;BME280;63361;52.384;20.930;2022-10-16T09:00:57;101053.41;;;20.15;57.27
74834;BME280;63361;52.384;20.930;2022-10-16T09:03:52;101044.09;;;20.75;54.58
74834;BME280;63361;52.384;20.930;2022-10-16T09:06:50;101053.41;;;21.45;53.07
74834;BME280;63361;52.384;20.930;2022-10-16T09:17:37;101039.75;;;24.27;45.87
74834;BME280;63361;52.384;20.930;2022-10-16T09:20:34;101041.91;;;23.90;47.49
74834;BME280;63361;52.384;20.930;2022-10-16T09:25:28;101023.41;;;22.42;50.58
74834;BME280;63361;52.384;20.930;2022-10-16T09:27:54;101030.19;;;23.09;49.76
74834;BME280;63361;52.384;20.930;2022-10-16T09:30:20;101042.16;;;23.01;49.33
74834;BME280;63361;52.384;20.930;2022-10-16T09:32:49;101021.41;;;23.04;49.43
74834;BME280;63361;52.384;20.930;2022-10-16T09:35:27;101032.31;;;22.03;51.81
74834;BME280;63361;52.384;20.930;2022-10-16T09:37:56;101019.25;;;21.13;54.37
74834;BME280;63361;52.384;20.930;2022-10-16T09:40:28;101025.72;;;20.46;56.02
74834;BME280;63361;52.384;20.930;2022-10-16T09:43:14;101035.16;;;20.57;56.64
74834;BME280;63361;52.384;20.930;2022-10-16T09:45:43;101024.25;;;20.69;56.50
74834;BME280;63361;52.384;20.930;2022-10-16T09:48:13;101043.66;;;21.35;54.72
74834;BME280;63361;52.384;20.930;2022-10-16T09:50:55;101039.16;;;21.97;53.39
74834;BME280;63361;52.384;20.930;2022-10-16T09:53:21;101022.16;;;22.40;52.07
74834;BME280;63361;52.384;20.930;2022-10-16T09:55:52;101040.03;;;22.83;50.71
74834;BME280;63361;52.384;20.930;2022-10-16T09:58:18;101044.69;;;23.90;48.15
74834;BME280;63361;52.384;20.930;2022-10-16T10:00:51;101045.19;;;24.24;46.77
74834;BME280;63361;52.384;20.930;2022-10-16T10:03:33;101041.22;;;23.93;47.47
74834;BME280;63361;52.384;20.930;2022-10-16T10:06:14;101029.78;;;23.35;48.56
74834;BME280;63361;52.384;20.930;2022-10-16T10:09:37;101018.84;;;24.26;47.11
74834;BME280;63361;52.384;20.930;2022-10-16T10:11:52;101018.81;;;24.42;47.46
74834;BME280;63361;52.384;20.930;2022-10-16T10:16:47;101018.69;;;22.06;51.73
74834;BME280;63361;52.384;20.930;2022-10-16T10:19:18;101017.81;;;21.82;53.13
74834;BME280;63361;52.384;20.930;2022-10-16T10:21:44;100997.13;;;21.96;52.17
74834;BME280;63361;52.384;20.930;2022-10-16T10:24:14;100989.03;;;21.22;55.12
74834;BME280;63361;52.384;20.930;2022-10-16T10:27:00;101009.59;;;21.49;54.51
74834;BME280;63361;52.384;20.930;2022-10-16T10:35:00;101022.59;;;21.39;55.67
74834;BME280;63361;52.384;20.930;2022-10-16T10:37:50;101009.59;;;21.49;55.31
74834;BME280;63361;52.384;20.930;2022-10-16T10:40:30;101009.06;;;21.22;56.31
74834;BME280;63361;52.384;20.930;2022-10-16T10:45:51;101002.78;;;21.13;55.95
74834;BME280;63361;52.384;20.930;2022-10-16T10:51:09;100999.25;;;21.33;56.05
74834;BME280;63361;52.384;20.930;2022-10-16T10:54:04;100992.28;;;21.69;55.23
74834;BME280;63361;52.384;20.930;2022-10-16T10:56:57;101010.34;;;21.70;54.37
74834;BME280;63361;52.384;20.930;2022-10-16T11:07:59;101019.38;;;21.70;53.80
74834;BME280;63361;52.384;20.930;2022-10-16T11:13:19;101004.88;;;21.82;54.29
74834;BME280;63361;52.384;20.930;2022-10-16T11:15:48;100993.09;;;21.82;53.87
74834;BME280;63361;52.384;20.930;2022-10-16T11:18:21;100994.00;;;21.86;53.69
74834;BME280;63361;52.384;20.930;2022-10-16T11:20:54;101000.69;;;22.33;52.00
74834;BME280;63361;52.384;20.930;2022-10-16T11:23:37;101009.75;;;22.34;52.12
74834;BME280;63361;52.384;20.930;2022-10-16T11:26:11;100999.31;;;22.03;52.66
74834;BME280;63361;52.384;20.930;2022-10-16T11:28:49;101015.25;;;21.64;53.69
74834;BME280;63361;52.384;20.930;2022-10-16T11:37:10;101001.59;;;22.50;50.98
74834;BME280;63361;52.384;20.930;2022-10-16T11:39:38;101018.72;;;22.43;51.85
74834;BME280;63361;52.384;20.930;2022-10-16T11:44:45;101011.91;;;22.77;51.10
74834;BME280;63361;52.384;20.930;2022-10-16T11:50:19;101006.78;;;22.27;52.02
74834;BME280;63361;52.384;20.930;2022-10-16T11:55:36;101017.53;;;22.32;52.69
74834;BME280;63361;52.384;20.930;2022-10-16T12:03:46;101015.75;;;23.84;48.73
74834;BME280;63361;52.384;20.930;2022-10-16T12:06:31;101005.44;;;23.65;48.66
74834;BME280;63361;52.384;20.930;2022-10-16T12:09:01;101021.22;;;22.60;51.93
74834;BME280;63361;52.384;20.930;2022-10-16T12:16:51;101023.84;;;21.63;54.96
74834;BME280;63361;52.384;20.930;2022-10-16T12:19:18;101029.47;;;21.99;54.51
74834;BME280;63361;52.384;20.930;2022-10-16T12:21:44;101034.63;;;22.62;51.96
74834;BME280;63361;52.384;20.930;2022-10-16T12:24:41;101024.28;;;21.98;53.47
74834;BME280;63361;52.384;20.930;2022-10-16T12:27:42;101033.72;;;22.21;54.19
74834;BME280;63361;52.384;20.930;2022-10-16T12:30:21;101007.25;;;22.41;52.91
74834;BME280;63361;52.384;20.930;2022-10-16T12:32:54;101014.34;;;22.05;53.38
74834;BME280;63361;52.384;20.930;2022-10-16T12:35:23;101031.66;;;21.85;54.79
74834;BME280;63361;52.384;20.930;2022-10-16T12:37:49;101003.53;;;20.81;57.13
74834;BME280;63361;52.384;20.930;2022-10-16T12:40:36;101027.16;;;20.94;57.20
74834;BME280;63361;52.384;20.930;2022-10-16T12:46:00;101016.97;;;20.94;57.42
74834;BME280;63361;52.384;20.930;2022-10-16T12:48:26;101022.38;;;21.65;55.70
74834;BME280;63361;52.384;20.930;2022-10-16T12:50:51;101022.84;;;22.25;54.31
74834;BME280;63361;52.384;20.930;2022-10-16T12:53:19;101028.31;;;22.61;53.19
74834;BME280;63361;52.384;20.930;2022-10-16T13:04:11;101032.44;;;22.31;53.31
74834;BME280;63361;52.384;20.930;2022-10-16T13:06:52;101047.47;;;21.76;55.09
74834;BME280;63361;52.384;20.930;2022-10-16T13:12:45;101035.34;;;20.52;58.23
74834;BME280;63361;52.384;20.930;2022-10-16T13:18:22;101054.47;;;20.31;59.41
74834;BME280;63361;52.384;20.930;2022-10-16T13:27:16;101051.00;;;20.05;59.98
74834;BME280;63361;52.384;20.930;2022-10-16T13:29:53;101052.44;;;20.02;60.29
74834;BME280;63361;52.384;20.930;2022-10-16T13:32:21;101068.28;;;19.88;60.45
74834;BME280;63361;52.384;20.930;2022-10-16T13:34:48;101064.53;;;20.01;60.39
74834;BME280;63361;52.384;20.930;2022-10-16T13:37:22;101065.72;;;19.92;61.46
74834;BME280;63361;52.384;20.930;2022-10-16T13:39:47;101050.22;;;19.87;60.39
74834;BME280;63361;52.384;20.930;2022-10-16T13:42:16;101061.97;;;20.05;60.99
74834;BME280;63361;52.384;20.930;2022-10-16T13:44:49;101065.97;;;20.08;60.59
74834;BME280;63361;52.384;20.930;2022-10-16T13:49:46;101069.16;;;20.27;60.58
74834;BME280;63361;52.384;20.930;2022-10-16T13:52:18;101057.47;;;20.00;61.40
74834;BME280;63361;52.384;20.930;2022-10-16T13:54:44;101056.41;;;19.67;62.96
74834;BME280;63361;52.384;20.930;2022-10-16T13:57:14;101035.28;;;19.42;63.21
74834;BME280;63361;52.384;20.930;2022-10-16T13:59:39;101048.84;;;19.47;63.69
74834;BME280;63361;52.384;20.930;2022-10-16T14:02:31;101065.44;;;19.33;64.33
74834;BME280;63361;52.384;20.930;2022-10-16T14:05:01;101049.97;;;19.37;64.16
74834;BME280;63361;52.384;20.930;2022-10-16T14:07:29;101065.09;;;19.43;63.72
74834;BME280;63361;52.384;20.930;2022-10-16T14:10:02;101062.03;;;19.27;64.57
74834;BME280;63361;52.384;20.930;2022-10-16T14:12:28;101065.56;;;19.11;64.79
74834;BME280;63361;52.384;20.930;2022-10-16T14:14:54;101066.38;;;19.11;65.83
74834;BME280;63361;52.384;20.930;2022-10-16T14:17:27;101075.25;;;19.25;64.95
74834;BME280;63361;52.384;20.930;2022-10-16T14:19:56;101068.97;;;19.16;65.18
74834;BME280;63361;52.384;20.930;2022-10-16T14:22:36;101066.88;;;19.13;65.45
74834;BME280;63361;52.384;20.930;2022-10-16T14:27:57;101080.56;;;19.05;66.30
74834;BME280;63361;52.384;20.930;2022-10-16T14:30:23;101072.31;;;18.96;66.54
74834;BME280;63361;52.384;20.930;2022-10-16T14:35:37;101083.91;;;18.93;66.89
74834;BME280;63361;52.384;20.930;2022-10-16T14:38:04;101091.16;;;18.89;67.40
74834;BME280;63361;52.384;20.930;2022-10-16T14:40:35;101088.72;;;18.96;67.71
74834;BME280;63361;52.384;20.930;2022-10-16T14:43:03;101085.84;;;19.01;67.39
74834;BME280;63361;52.384;20.930;2022-10-16T14:45:34;101077.78;;;18.96;67.17
74834;BME280;63361;52.384;20.930;2022-10-16T14:48:03;101072.03;;;19.06;67.10